createdAt,value
2022-12-04T00:08:45.527Z,71
2022-12-04T00:38:40.327Z,69
2022-12-04T01:08:39.226Z,68
2022-12-04T01:38:42.063Z,63
2022-12-04T02:08:40.990Z,66
2022-12-04T02:38:39.949Z,64
2022-12-04T03:08:43.805Z,62
2022-12-04T03:39:46.849Z,65
2022-12-04T04:09:39.171Z,60
2022-12-04T04:39:41.365Z,64
2022-12-04T05:09:39.774Z,62
2022-12-04T05:39:34.840Z,64
2022-12-04T06:09:37.375Z,62
2022-12-04T06:39:36.027Z,60
2022-12-04T07:09:32.256Z,59
2022-12-04T07:39:32.727Z,57
2022-12-04T08:09:36.618Z,66
2022-12-04T08:39:34.745Z,68
2022-12-04T09:09:37.505Z,72
2022-12-04T09:39:41.263Z,70
2022-12-04T10:09:43.435Z,66
2022-12-04T10:39:45.420Z,66
2022-12-04T11:09:42.519Z,66
2022-12-04T11:39:42.846Z,68
2022-12-04T12:09:45.256Z,65
2022-12-04T12:39:46.937Z,65
2022-12-04T13:09:40.373Z,67
2022-12-04T13:39:39.575Z,67
2022-12-04T14:09:41.236Z,67
2022-12-04T14:39:39.578Z,70
2022-12-04T15:09:37.625Z,74
2022-12-04T15:39:34.128Z,81
2022-12-04T16:09:31.725Z,80
2022-12-04T16:39:33.994Z,80
2022-12-04T17:09:30.077Z,76
2022-12-04T17:39:30.666Z,76
2022-12-04T18:09:27.365Z,74
2022-12-04T18:39:27.558Z,78
2022-12-04T19:09:21.833Z,75
2022-12-04T19:39:17.349Z,80
2022-12-04T20:09:19.543Z,79
2022-12-04T20:39:22.271Z,77
2022-12-04T21:09:24.342Z,78
2022-12-04T21:39:27.254Z,76
2022-12-04T22:09:23.478Z,77
2022-12-04T22:39:21.291Z,73
2022-12-04T23:09:19.820Z,73
2022-12-04T23:39:18.954Z,112
